createdAt,value
2022-08-16T00:01:33.712Z,71.51
2022-08-16T00:04:05.057Z,71.36
2022-08-16T00:06:34.147Z,71.36
2022-08-16T00:09:05.609Z,71.35
2022-08-16T00:11:34.627Z,71.50
2022-08-16T00:14:08.697Z,71.88
2022-08-16T00:17:01.534Z,72.13
2022-08-16T00:19:41.572Z,72.09
2022-08-16T00:22:13.818Z,72.58
2022-08-16T00:24:46.618Z,72.58
2022-08-16T00:27:17.459Z,72.60
2022-08-16T00:29:46.234Z,72.79
2022-08-16T00:32:18.126Z,72.92
2022-08-16T00:34:52.942Z,72.78
2022-08-16T00:37:24.160Z,72.69
2022-08-16T00:39:58.250Z,72.56
2022-08-16T00:42:41.252Z,72.36
2022-08-16T00:45:21.309Z,72.48
2022-08-16T00:47:54.375Z,72.24
2022-08-16T00:50:36.448Z,72.02
2022-08-16T00:53:05.823Z,72.13
2022-08-16T00:55:37.928Z,72.17
2022-08-16T00:58:12.727Z,72.06
2022-08-16T01:00:41.943Z,72.03
2022-08-16T01:03:13.610Z,72.05
2022-08-16T01:05:44.838Z,71.79
2022-08-16T01:08:36.380Z,72.03
2022-08-16T01:11:07.262Z,71.95
2022-08-16T01:13:38.891Z,71.72
2022-08-16T01:16:11.650Z,71.99
2022-08-16T01:18:45.271Z,72.10
2022-08-16T01:21:24.439Z,71.84
2022-08-16T01:24:51.723Z,71.94
2022-08-16T01:27:08.274Z,71.94
2022-08-16T01:29:58.712Z,72.09
2022-08-16T01:32:33.386Z,71.88
2022-08-16T01:35:06.873Z,72.09
2022-08-16T01:37:43.077Z,72.30
2022-08-16T01:40:15.640Z,72.21
2022-08-16T01:42:48.151Z,72.30
2022-08-16T01:45:19.688Z,72.54
2022-08-16T01:47:51.793Z,72.68
2022-08-16T01:50:41.759Z,72.53
2022-08-16T01:53:12.028Z,72.31
2022-08-16T01:55:42.885Z,72.36
2022-08-16T01:58:23.964Z,72.43
2022-08-16T02:00:52.559Z,72.48
2022-08-16T02:03:26.564Z,72.42
2022-08-16T02:05:55.653Z,72.50
2022-08-16T02:08:33.759Z,72.31
2022-08-16T02:11:08.638Z,72.14
2022-08-16T02:13:41.879Z,72.02
2022-08-16T02:16:18.607Z,72.24
2022-08-16T02:18:47.859Z,72.31
2022-08-16T02:21:17.340Z,72.63
2022-08-16T02:24:00.226Z,72.70
2022-08-16T02:26:34.443Z,73.10
2022-08-16T02:29:03.142Z,73.40
2022-08-16T02:32:04.419Z,73.63
2022-08-16T02:34:21.305Z,73.47
2022-08-16T02:37:01.513Z,73.39
2022-08-16T02:39:30.210Z,73.18
2022-08-16T02:42:00.448Z,73.08
2022-08-16T02:44:29.296Z,72.88
2022-08-16T02:46:57.821Z,72.80
2022-08-16T02:49:58.059Z,72.86
2022-08-16T02:52:24.982Z,72.75
2022-08-16T02:54:58.130Z,72.55
2022-08-16T02:57:31.051Z,72.66
2022-08-16T03:00:00.185Z,72.65
2022-08-16T03:02:55.919Z,72.89
2022-08-16T03:05:25.428Z,72.90
2022-08-16T03:07:59.863Z,73.26
2022-08-16T03:10:33.507Z,73.35
2022-08-16T03:13:04.638Z,73.48
2022-08-16T03:15:41.194Z,73.65
2022-08-16T03:18:12.660Z,73.72
2022-08-16T03:20:59.708Z,73.80
2022-08-16T03:23:35.822Z,74.08
2022-08-16T03:26:04.662Z,73.79
2022-08-16T03:28:34.525Z,73.69
2022-08-16T03:31:03.566Z,73.46
2022-08-16T03:33:32.790Z,73.27
2022-08-16T03:36:30.894Z,73.20
2022-08-16T03:38:51.801Z,72.82
2022-08-16T03:41:25.339Z,72.80
2022-08-16T03:43:59.471Z,72.67
2022-08-16T03:46:47.537Z,72.74
2022-08-16T03:49:18.004Z,72.65
2022-08-16T03:51:46.653Z,72.60
2022-08-16T03:54:15.146Z,72.67
2022-08-16T03:56:57.358Z,72.70
2022-08-16T03:59:29.316Z,72.66
2022-08-16T04:01:59.258Z,72.70
2022-08-16T04:04:33.079Z,72.69
2022-08-16T04:07:04.140Z,72.57
2022-08-16T04:09:35.535Z,72.45
2022-08-16T04:12:10.732Z,72.60
2022-08-16T04:14:46.366Z,72.62
2022-08-16T04:17:16.011Z,72.76
2022-08-16T04:19:45.806Z,72.63
2022-08-16T04:22:17.341Z,72.57
2022-08-16T04:24:54.157Z,72.78
2022-08-16T04:27:24.620Z,72.72
2022-08-16T04:30:03.025Z,72.53
2022-08-16T04:32:32.337Z,72.67
2022-08-16T04:35:06.314Z,72.73
2022-08-16T04:37:42.150Z,72.77
2022-08-16T04:40:21.534Z,72.94
2022-08-16T04:42:52.012Z,73.03
2022-08-16T04:45:36.606Z,72.99
2022-08-16T04:48:06.474Z,72.88
2022-08-16T04:50:35.061Z,73.03
2022-08-16T04:53:04.764Z,73.21
2022-08-16T04:55:38.428Z,73.19
2022-08-16T04:58:43.853Z,73.14
2022-08-16T05:00:58.821Z,72.62
2022-08-16T05:03:27.313Z,72.55
2022-08-16T05:05:59.821Z,72.35
2022-08-16T05:08:34.530Z,72.31
2022-08-16T05:11:08.296Z,72.32
2022-08-16T05:13:42.389Z,72.14
2022-08-16T05:16:19.636Z,72.00
2022-08-16T05:18:50.871Z,72.14
2022-08-16T05:21:20.776Z,72.11
2022-08-16T05:23:56.059Z,72.08
2022-08-16T05:26:30.838Z,72.01
2022-08-16T05:29:03.627Z,71.92
2022-08-16T05:31:34.973Z,71.64
2022-08-16T05:34:05.101Z,71.67
2022-08-16T05:36:49.332Z,71.71
2022-08-16T05:39:20.961Z,71.67
2022-08-16T05:41:52.076Z,71.64
2022-08-16T05:44:25.059Z,71.49
2022-08-16T05:47:00.389Z,71.55
2022-08-16T05:49:39.296Z,71.60
2022-08-16T05:52:11.528Z,71.75
2022-08-16T05:54:47.117Z,71.65
2022-08-16T05:57:18.197Z,71.60
2022-08-16T05:59:47.508Z,71.60
2022-08-16T06:02:21.838Z,71.49
2022-08-16T06:04:57.538Z,71.43
2022-08-16T06:07:26.891Z,71.41
2022-08-16T06:09:59.581Z,71.35
2022-08-16T06:12:29.749Z,71.52
2022-08-16T06:15:07.747Z,71.20
2022-08-16T06:17:43.344Z,71.17
2022-08-16T06:20:18.603Z,71.20
2022-08-16T06:22:57.607Z,71.06
2022-08-16T06:25:36.258Z,71.19
2022-08-16T06:28:16.652Z,71.36
2022-08-16T06:30:46.197Z,71.33
2022-08-16T06:33:19.844Z,71.35
2022-08-16T06:35:54.954Z,71.36
2022-08-16T06:38:33.334Z,71.42
2022-08-16T06:41:05.484Z,71.32
2022-08-16T06:43:35.117Z,71.25
2022-08-16T06:46:09.796Z,71.33
2022-08-16T06:48:42.815Z,71.32
2022-08-16T06:51:14.877Z,71.28
2022-08-16T06:53:43.514Z,71.24
2022-08-16T06:56:14.952Z,71.08
2022-08-16T06:58:52.994Z,70.94
2022-08-16T07:01:46.125Z,70.74
2022-08-16T07:04:12.399Z,70.68
2022-08-16T07:06:43.310Z,70.52
2022-08-16T07:09:13.375Z,70.40
2022-08-16T07:11:47.341Z,70.15
2022-08-16T07:14:24.120Z,70.05
2022-08-16T07:16:54.137Z,70.00
2022-08-16T07:20:03.598Z,69.98
2022-08-16T07:22:36.692Z,69.73
2022-08-16T07:25:02.123Z,69.81
2022-08-16T07:27:33.758Z,69.42
2022-08-16T07:30:02.602Z,69.49
2022-08-16T07:32:33.185Z,69.25
2022-08-16T07:35:05.287Z,69.18
2022-08-16T07:37:33.946Z,69.03
2022-08-16T07:40:03.074Z,69.01
2022-08-16T07:42:40.222Z,68.85
2022-08-16T07:45:10.586Z,68.60
2022-08-16T07:47:39.178Z,68.70
2022-08-16T07:50:56.564Z,68.57
2022-08-16T07:53:02.041Z,68.46
2022-08-16T07:55:45.987Z,68.37
2022-08-16T07:58:18.414Z,68.23
2022-08-16T08:01:10.103Z,67.96
2022-08-16T08:03:43.685Z,67.73
2022-08-16T08:06:18.599Z,67.50
2022-08-16T08:08:49.164Z,67.36
2022-08-16T08:11:21.692Z,67.21
2022-08-16T08:13:53.851Z,67.20
2022-08-16T08:16:30.731Z,67.31
2022-08-16T08:19:02.402Z,66.96
2022-08-16T08:21:59.176Z,66.77
2022-08-16T08:24:32.343Z,66.73
2022-08-16T08:27:03.347Z,66.59
2022-08-16T08:29:36.863Z,66.49
2022-08-16T08:32:57.572Z,66.05
2022-08-16T08:35:03.221Z,65.92
2022-08-16T08:37:54.311Z,65.73
2022-08-16T08:40:26.793Z,65.37
2022-08-16T08:43:00.603Z,65.09
2022-08-16T08:45:47.983Z,64.89
2022-08-16T08:48:34.112Z,64.61
2022-08-16T08:51:05.673Z,64.34
2022-08-16T08:53:39.744Z,63.86
2022-08-16T08:56:22.501Z,63.70
2022-08-16T08:58:54.950Z,63.72
2022-08-16T09:01:31.732Z,63.34
2022-08-16T09:04:06.140Z,63.30
2022-08-16T09:06:35.469Z,63.09
2022-08-16T09:09:06.249Z,62.43
2022-08-16T09:11:40.979Z,62.64
2022-08-16T09:14:24.180Z,62.07
2022-08-16T09:17:00.783Z,61.76
2022-08-16T09:19:33.784Z,61.60
2022-08-16T09:22:03.922Z,60.92
2022-08-16T09:24:51.665Z,60.94
2022-08-16T09:27:21.702Z,60.60
2022-08-16T09:30:00.353Z,60.16
2022-08-16T09:32:31.061Z,60.11
2022-08-16T09:35:01.975Z,59.99
2022-08-16T09:37:36.788Z,59.72
2022-08-16T09:40:31.781Z,59.44
2022-08-16T09:42:59.705Z,59.32
2022-08-16T09:45:31.175Z,59.03
2022-08-16T09:47:59.855Z,58.40
2022-08-16T09:50:37.277Z,58.44
2022-08-16T09:53:15.206Z,58.22
2022-08-16T09:55:49.382Z,58.03
2022-08-16T09:58:41.318Z,57.22
2022-08-16T10:01:11.190Z,57.38
2022-08-16T10:04:02.508Z,56.87
2022-08-16T10:06:33.607Z,56.50
2022-08-16T10:09:05.453Z,56.37
2022-08-16T10:11:54.774Z,56.18
2022-08-16T10:14:24.868Z,56.32
2022-08-16T10:17:05.111Z,56.05
2022-08-16T10:19:34.415Z,55.82
2022-08-16T10:22:05.019Z,55.27
2022-08-16T10:24:34.919Z,54.40
2022-08-16T10:27:26.365Z,53.81
2022-08-16T10:30:00.789Z,53.74
2022-08-16T10:32:31.987Z,53.64
2022-08-16T10:35:01.995Z,53.66
2022-08-16T10:37:35.950Z,53.18
2022-08-16T10:40:29.738Z,52.82
2022-08-16T10:42:59.123Z,52.37
2022-08-16T10:45:37.070Z,51.38
2022-08-16T10:48:28.079Z,50.91
2022-08-16T10:50:58.242Z,50.96
2022-08-16T10:53:33.049Z,50.29
2022-08-16T10:56:03.046Z,49.92
2022-08-16T10:58:35.597Z,50.38
2022-08-16T11:03:57.477Z,50.24
2022-08-16T11:06:28.732Z,49.64
2022-08-16T11:14:37.993Z,49.03
2022-08-16T11:17:09.511Z,48.74
2022-08-16T11:22:46.967Z,47.87
2022-08-16T11:28:10.141Z,46.70
2022-08-16T11:30:41.413Z,46.32
2022-08-16T11:33:10.707Z,46.29
2022-08-16T11:35:44.488Z,45.72
2022-08-16T11:38:46.798Z,45.17
2022-08-16T11:41:05.292Z,45.14
2022-08-16T11:43:39.089Z,44.49
2022-08-16T11:46:43.255Z,44.47
2022-08-16T11:49:01.050Z,44.63
2022-08-16T11:51:29.651Z,43.59
2022-08-16T11:53:58.620Z,42.60
2022-08-16T11:56:39.710Z,42.23
2022-08-16T11:59:16.013Z,42.08
2022-08-16T12:01:59.416Z,41.97
2022-08-16T12:04:29.305Z,41.81
2022-08-16T12:06:58.772Z,42.19
2022-08-16T12:09:29.569Z,42.16
2022-08-16T12:12:02.854Z,42.27
2022-08-16T12:14:35.272Z,42.12
2022-08-16T12:17:06.925Z,41.42
2022-08-16T12:19:37.288Z,41.35
2022-08-16T12:22:19.693Z,40.70
2022-08-16T12:24:52.067Z,40.25
2022-08-16T12:27:24.026Z,39.65
2022-08-16T12:29:53.271Z,39.81
2022-08-16T12:32:35.641Z,39.48
2022-08-16T12:35:12.209Z,39.65
2022-08-16T12:37:42.978Z,39.04
2022-08-16T12:40:24.762Z,38.91
2022-08-16T12:42:59.714Z,38.67
2022-08-16T12:45:33.054Z,38.46
2022-08-16T12:48:33.534Z,38.67
2022-08-16T12:51:05.210Z,38.49
2022-08-16T12:53:43.181Z,38.16
2022-08-16T12:56:17.471Z,37.45
2022-08-16T12:58:51.760Z,37.46
2022-08-16T13:01:22.661Z,36.67
2022-08-16T13:04:11.613Z,36.54
2022-08-16T13:06:44.966Z,36.93
2022-08-16T13:09:21.721Z,36.61
2022-08-16T13:12:03.527Z,37.07
2022-08-16T13:14:36.454Z,37.08
2022-08-16T13:17:09.481Z,36.78
2022-08-16T13:20:06.633Z,36.39
2022-08-16T13:22:30.495Z,36.76
2022-08-16T13:24:59.825Z,36.48
2022-08-16T13:27:59.378Z,36.10
2022-08-16T13:30:36.221Z,35.94
2022-08-16T13:33:10.397Z,35.82
2022-08-16T13:35:43.488Z,35.42
2022-08-16T13:38:21.596Z,35.55
2022-08-16T13:40:55.875Z,35.31
2022-08-16T13:43:26.588Z,35.57
2022-08-16T13:45:56.582Z,35.69
2022-08-16T13:48:26.461Z,35.70
2022-08-16T13:51:15.763Z,34.87
2022-08-16T13:53:45.828Z,34.15
2022-08-16T13:56:25.455Z,34.04
2022-08-16T13:58:55.526Z,34.14
2022-08-16T14:01:25.024Z,34.23
2022-08-16T14:03:55.859Z,34.58
2022-08-16T14:06:25.818Z,34.42
2022-08-16T14:08:59.072Z,34.24
2022-08-16T14:11:35.224Z,33.58
2022-08-16T14:14:05.681Z,33.43
2022-08-16T14:16:35.372Z,33.86
2022-08-16T14:19:06.981Z,33.87
2022-08-16T14:21:37.441Z,33.56
2022-08-16T14:24:12.715Z,33.72
2022-08-16T14:26:55.042Z,34.00
2022-08-16T14:29:28.467Z,33.88
2022-08-16T14:32:00.685Z,33.78
2022-08-16T14:34:30.081Z,33.76
2022-08-16T14:37:00.882Z,33.54
2022-08-16T14:39:29.454Z,33.76
2022-08-16T14:42:05.550Z,33.48
2022-08-16T14:44:34.782Z,32.86
2022-08-16T14:47:04.274Z,32.71
2022-08-16T14:49:35.657Z,32.93
2022-08-16T14:52:13.629Z,33.45
2022-08-16T14:54:45.751Z,33.51
2022-08-16T14:57:16.270Z,33.76
2022-08-16T14:59:46.075Z,33.27
2022-08-16T15:02:33.989Z,32.69
2022-08-16T15:05:04.481Z,32.85
2022-08-16T15:07:35.310Z,33.12
2022-08-16T15:10:06.004Z,32.94
2022-08-16T15:12:37.501Z,33.00
2022-08-16T15:15:16.628Z,32.91
2022-08-16T15:17:54.141Z,32.83
2022-08-16T15:20:29.444Z,33.06
2022-08-16T15:23:01.705Z,32.84
2022-08-16T15:25:33.588Z,32.49
2022-08-16T15:28:05.265Z,32.38
2022-08-16T15:30:57.152Z,32.42
2022-08-16T15:33:27.315Z,32.22
2022-08-16T15:35:57.854Z,31.93
2022-08-16T15:38:54.801Z,31.62
2022-08-16T15:41:47.036Z,31.67
2022-08-16T15:44:22.161Z,31.64
2022-08-16T15:46:56.253Z,31.56
2022-08-16T15:49:34.952Z,31.58
2022-08-16T15:52:12.598Z,31.32
2022-08-16T15:54:52.605Z,31.68
2022-08-16T15:57:22.916Z,31.27
2022-08-16T15:59:52.620Z,31.36
2022-08-16T16:02:29.504Z,31.14
2022-08-16T16:05:02.061Z,31.46
2022-08-16T16:07:33.289Z,31.29
2022-08-16T16:10:07.852Z,30.93
2022-08-16T16:12:51.368Z,31.08
2022-08-16T16:15:29.325Z,30.95
2022-08-16T16:17:58.823Z,30.80
2022-08-16T16:20:31.714Z,30.89
2022-08-16T16:23:02.087Z,31.03
2022-08-16T16:25:33.811Z,30.88
2022-08-16T16:28:02.710Z,31.33
2022-08-16T16:30:37.579Z,31.02
2022-08-16T16:33:20.806Z,30.75
2022-08-16T16:35:56.496Z,30.75
2022-08-16T16:38:28.931Z,30.91
2022-08-16T16:40:59.836Z,31.18
2022-08-16T16:43:31.117Z,31.26
2022-08-16T16:46:00.677Z,31.12
2022-08-16T16:48:35.257Z,31.19
2022-08-16T16:51:09.851Z,30.85
2022-08-16T16:53:55.823Z,30.80
2022-08-16T16:56:31.369Z,31.05
2022-08-16T16:59:04.905Z,31.06
2022-08-16T17:01:56.931Z,30.96
2022-08-16T17:04:32.065Z,31.21
2022-08-16T17:07:02.546Z,31.48
2022-08-16T17:09:32.333Z,31.94
2022-08-16T17:12:10.225Z,32.25
2022-08-16T17:14:46.778Z,32.16
2022-08-16T17:17:15.456Z,32.24
2022-08-16T17:19:44.488Z,32.76
2022-08-16T17:22:16.045Z,32.56
2022-08-16T17:24:52.653Z,32.53
2022-08-16T17:27:32.485Z,32.53
2022-08-16T17:30:03.148Z,32.36
2022-08-16T17:32:49.029Z,32.29
2022-08-16T17:35:24.204Z,32.58
2022-08-16T17:38:06.055Z,33.60
2022-08-16T17:40:50.413Z,33.92
2022-08-16T17:43:31.399Z,33.85
2022-08-16T17:46:00.925Z,34.41
2022-08-16T17:48:31.852Z,34.78
2022-08-16T17:51:00.686Z,35.08
2022-08-16T17:53:29.395Z,35.37
2022-08-16T17:55:57.949Z,35.24
2022-08-16T17:58:26.630Z,35.05
2022-08-16T18:00:59.786Z,35.10
2022-08-16T18:04:02.963Z,35.21
2022-08-16T18:06:24.376Z,35.67
2022-08-16T18:09:01.622Z,35.77
2022-08-16T18:11:34.020Z,36.46
2022-08-16T18:14:02.710Z,37.26
2022-08-16T18:16:32.865Z,38.26
2022-08-16T18:19:01.801Z,38.87
2022-08-16T18:21:47.973Z,39.30
2022-08-16T18:24:16.426Z,39.83
2022-08-16T18:26:44.853Z,40.23
2022-08-16T18:29:13.853Z,40.65
2022-08-16T18:31:43.712Z,40.87
2022-08-16T18:34:12.171Z,41.44
2022-08-16T18:36:40.657Z,41.53
2022-08-16T18:39:10.353Z,41.33
2022-08-16T18:41:38.924Z,41.54
2022-08-16T18:44:25.415Z,41.69
2022-08-16T18:46:57.747Z,42.11
2022-08-16T18:49:26.283Z,42.64
2022-08-16T18:51:58.327Z,42.95
2022-08-16T18:54:28.145Z,44.42
2022-08-16T18:56:58.328Z,45.19
2022-08-16T18:59:29.865Z,45.70
2022-08-16T19:02:04.536Z,45.68
2022-08-16T19:04:55.673Z,45.87
2022-08-16T19:07:31.126Z,45.71
2022-08-16T19:10:01.875Z,45.63
2022-08-16T19:12:38.835Z,45.41
2022-08-16T19:15:15.804Z,45.71
2022-08-16T19:17:46.737Z,45.78
2022-08-16T19:20:17.856Z,46.02
2022-08-16T19:25:46.989Z,46.46
2022-08-16T19:28:49.812Z,46.53
2022-08-16T19:31:08.158Z,46.85
2022-08-16T19:33:38.166Z,47.27
2022-08-16T19:36:07.055Z,47.52
2022-08-16T19:38:40.200Z,47.29
2022-08-16T19:41:10.357Z,47.06
2022-08-16T19:43:38.991Z,47.16
2022-08-16T19:46:07.655Z,47.37
2022-08-16T19:48:38.295Z,47.38
2022-08-16T19:51:07.348Z,47.71
2022-08-16T19:53:35.889Z,47.94
2022-08-16T19:56:04.847Z,47.84
2022-08-16T19:58:33.603Z,47.97
2022-08-16T20:01:02.299Z,47.99
2022-08-16T20:03:31.027Z,47.94
2022-08-16T20:06:00.920Z,47.53
2022-08-16T20:08:29.471Z,47.75
2022-08-16T20:10:58.317Z,47.62
2022-08-16T20:13:26.756Z,47.54
2022-08-16T20:15:56.875Z,48.05
2022-08-16T20:18:25.764Z,48.45
2022-08-16T20:20:55.846Z,48.24
2022-08-16T20:23:27.000Z,48.17
2022-08-16T20:25:56.583Z,48.35
2022-08-16T20:28:51.990Z,48.57
2022-08-16T20:31:13.898Z,48.67
2022-08-16T20:33:42.376Z,49.12
2022-08-16T20:36:16.258Z,49.43
2022-08-16T20:38:47.746Z,49.45
2022-08-16T20:41:17.074Z,49.52
2022-08-16T20:43:47.383Z,49.49
2022-08-16T20:46:15.928Z,49.83
2022-08-16T20:48:44.668Z,50.23
2022-08-16T20:51:13.399Z,50.56
2022-08-16T20:53:43.496Z,50.57
2022-08-16T20:56:13.585Z,50.88
2022-08-16T20:58:42.060Z,51.93
2022-08-16T21:01:10.771Z,52.32
2022-08-16T21:03:39.407Z,52.58
2022-08-16T21:06:08.270Z,52.94
2022-08-16T21:08:51.472Z,52.68
2022-08-16T21:11:23.865Z,52.21
2022-08-16T21:13:55.393Z,51.99
2022-08-16T21:16:29.418Z,51.78
2022-08-16T21:18:57.837Z,51.83
2022-08-16T21:21:31.992Z,52.06
2022-08-16T21:24:02.349Z,52.32
2022-08-16T21:26:32.168Z,52.42
2022-08-16T21:29:00.810Z,52.54
2022-08-16T21:31:29.343Z,52.28
2022-08-16T21:33:57.820Z,52.12
2022-08-16T21:36:35.320Z,52.07
2022-08-16T21:39:06.783Z,51.95
2022-08-16T21:41:38.327Z,51.90
2022-08-16T21:44:06.960Z,51.81
2022-08-16T21:46:35.615Z,51.71
2022-08-16T21:49:05.872Z,51.50
2022-08-16T21:51:36.164Z,51.59
2022-08-16T21:54:04.696Z,51.87
2022-08-16T21:56:33.131Z,52.49
2022-08-16T21:59:07.099Z,52.84
2022-08-16T22:01:35.610Z,52.93
2022-08-16T22:04:37.270Z,52.82
2022-08-16T22:06:53.118Z,52.41
2022-08-16T22:09:21.992Z,52.04
2022-08-16T22:11:50.439Z,52.03
2022-08-16T22:14:21.975Z,52.00
2022-08-16T22:16:50.490Z,52.33
2022-08-16T22:19:19.108Z,52.50
2022-08-16T22:21:47.503Z,52.87
2022-08-16T22:24:16.232Z,52.94
2022-08-16T22:26:45.790Z,52.92
2022-08-16T22:29:15.314Z,52.47
2022-08-16T22:31:45.228Z,52.76
2022-08-16T22:34:14.556Z,52.98
2022-08-16T22:36:43.053Z,53.14
2022-08-16T22:39:14.485Z,53.40
2022-08-16T22:41:45.512Z,53.39
2022-08-16T22:44:14.588Z,53.54
2022-08-16T22:46:45.124Z,53.73
2022-08-16T22:49:14.671Z,53.54
2022-08-16T22:51:43.171Z,53.67
2022-08-16T22:54:39.260Z,53.83
2022-08-16T22:57:00.624Z,53.83
2022-08-16T22:59:30.432Z,54.53
2022-08-16T23:02:02.342Z,55.22
2022-08-16T23:04:31.364Z,55.32
2022-08-16T23:07:00.150Z,55.39
2022-08-16T23:09:28.799Z,55.44
2022-08-16T23:11:57.217Z,55.96
2022-08-16T23:14:25.795Z,56.57
2022-08-16T23:16:54.393Z,56.89
2022-08-16T23:19:24.198Z,56.71
2022-08-16T23:21:53.099Z,56.24
2022-08-16T23:24:21.822Z,56.10
2022-08-16T23:26:50.263Z,56.28
2022-08-16T23:29:23.864Z,56.23
2022-08-16T23:31:57.437Z,55.78
2022-08-16T23:34:29.065Z,55.38
2022-08-16T23:36:57.751Z,55.02
2022-08-16T23:39:26.425Z,55.05
2022-08-16T23:41:55.684Z,55.23
2022-08-16T23:44:55.800Z,55.57
2022-08-16T23:47:12.550Z,56.12
2022-08-16T23:49:58.103Z,56.49
2022-08-16T23:52:38.409Z,56.97
2022-08-16T23:55:20.121Z,57.11
2022-08-16T23:57:49.321Z,57.24
